Terminal Aerodrome Forecast
Issued by NWS Sioux Falls, SD

Home | Current Version | Previous Version | Text Only | Print | Product List | Glossary On
Versions: 1 2 3 4 5 6 7 8 9 10 11 12 13 14 15 16 17 18 19 20 21 22 23 24 25
280
FTUS43 KFSD 071135
TAFSUX
TAF
KSUX 071135Z 0712/0812 30014G21KT P6SM FEW120 WS010/31045KT
     FM071500 29016G30KT P6SM SCT150
     FM072000 31025G35KT P6SM BKN060
     FM080300 32025G38KT P6SM VCSH SCT030 OVC050
      TEMPO 0805/0808 3SM -SHSN BLSN OVC030
     FM080900 33026G39KT P6SM OVC040=

USA.gov is the U.S. government's official web portal to all federal, state and local government web resources and services.